Time;durP1;ratioP1;P1;durP2;ratioP2;P2;SDS_P1;SDS_P2;PMS_P1;PMS_P2;Temp;Humidity;BMP_temperature;BMP_pressure;BME280_temperature;BME280_humidity;BME280_pressure;Samples;Min_cycle;Max_cycle;Signal;HPM_P1;HPM_P2
2022/06/04 00:02:15;;;;;;;3.33;1.85;;;18.90;58.80;;;;;;5106761;28;20126;-72
2022/06/04 00:04:42;;;;;;;2.20;1.63;;;19.80;58.70;;;;;;5110549;28;20134;-72
2022/06/04 00:07:08;;;;;;;1.95;1.65;;;20.90;59.60;;;;;;5109423;28;20169;-72
2022/06/04 00:09:35;;;;;;;3.28;1.67;;;19.40;59.80;;;;;;5097753;28;20044;-72
2022/06/04 00:17:37;;;;;;;1.90;1.70;;;19.80;55.60;;;;;;5079181;28;20147;-72
2022/06/04 00:20:05;;;;;;;2.33;1.60;;;19.80;55.60;;;;;;5090333;28;20554;-72
2022/06/04 00:22:32;;;;;;;4.53;1.85;;;19.80;59.30;;;;;;5090244;28;20052;-72
2022/06/04 00:24:58;;;;;;;2.05;1.70;;;19.90;58.40;;;;;;5091130;28;20161;-72
2022/06/04 00:27:25;;;;;;;2.75;1.90;;;19.60;59.00;;;;;;5090172;28;20058;-72
2022/06/04 00:29:53;;;;;;;3.80;2.08;;;19.70;59.90;;;;;;5091088;28;20139;-72
2022/06/04 00:32:20;;;;;;;2.47;1.77;;;19.70;59.00;;;;;;5090166;28;20079;-72
2022/06/04 00:34:47;;;;;;;2.47;1.95;;;19.80;58.60;;;;;;5089795;28;20058;-72
2022/06/04 00:37:13;;;;;;;2.72;1.75;;;19.80;55.70;;;;;;5091251;28;20497;-72
2022/06/04 00:39:42;;;;;;;2.97;1.77;;;19.80;55.70;;;;;;5092111;28;20508;-72
2022/06/04 00:42:10;;;;;;;4.78;1.85;;;19.80;59.70;;;;;;5110232;28;20318;-72
2022/06/04 00:45:10;;;;;;;3.08;1.90;;;19.80;55.70;;;;;;5109486;28;20578;-72
2022/06/04 00:47:38;;;;;;;3.22;1.70;;;19.80;55.60;;;;;;5110217;28;20073;-72
2022/06/04 00:50:06;;;;;;;3.05;1.90;;;19.70;55.70;;;;;;5109772;28;20052;-72
2022/06/04 00:52:32;;;;;;;3.70;1.83;;;19.60;60.00;;;;;;5110222;28;20056;-72
2022/06/04 00:54:59;;;;;;;2.63;2.00;;;20.30;58.90;;;;;;5109580;28;20748;-72
2022/06/04 00:57:57;;;;;;;2.22;1.90;;;19.70;55.70;;;;;;5109289;28;20062;-72
2022/06/04 01:00:25;;;;;;;3.47;2.17;;;19.70;55.50;;;;;;5091222;28;20051;-72
2022/06/04 01:03:04;;;;;;;3.67;1.90;;;19.70;60.00;;;;;;5104598;28;20158;-72
2022/06/04 01:05:37;;;;;;;1.90;1.70;;;19.10;59.80;;;;;;5109441;28;20135;-72
2022/06/04 01:08:19;;;;;;;2.55;1.83;;;20.10;60.20;;;;;;5096414;28;20127;-73
2022/06/04 01:10:51;;;;;;;3.00;2.03;;;19.60;55.60;;;;;;5089459;28;20055;-72
2022/06/04 01:13:31;;;;;;;2.63;1.75;;;19.60;55.70;;;;;;5097309;28;20131;-72
2022/06/04 01:16:04;;;;;;;2.67;1.73;;;19.60;55.70;;;;;;5109609;28;20191;-72
2022/06/04 01:18:39;;;;;;;2.80;1.95;;;19.60;55.80;;;;;;5110716;28;20078;-72
2022/06/04 01:21:12;;;;;;;2.28;1.70;;;19.60;59.40;;;;;;5109346;28;20390;-72
2022/06/04 01:24:03;;;;;;;2.10;1.77;;;19.70;59.70;;;;;;5109145;28;20130;-72
2022/06/04 01:26:46;;;;;;;3.35;1.90;;;19.60;55.60;;;;;;5109406;28;20142;-72
2022/06/04 01:29:15;;;;;;;2.00;1.60;;;19.60;60.10;;;;;;5107804;28;20069;-72
2022/06/04 01:31:46;;;;;;;3.13;1.90;;;18.80;60.20;;;;;;5109303;28;20138;-72
2022/06/04 01:34:13;;;;;;;2.55;2.05;;;19.50;55.70;;;;;;5108640;28;20056;-72
2022/06/04 01:36:42;;;;;;;3.25;1.80;;;19.20;59.40;;;;;;5107319;28;20130;-72
2022/06/04 01:39:13;;;;;;;2.72;1.83;;;19.50;59.60;;;;;;5091582;28;20451;-72
2022/06/04 01:41:42;;;;;;;3.05;2.10;;;19.50;55.70;;;;;;5093431;28;20150;-71
2022/06/04 01:44:09;;;;;;;3.63;2.10;;;19.50;55.70;;;;;;5108759;28;20548;-72
2022/06/04 01:46:38;;;;;;;3.22;2.13;;;19.50;55.70;;;;;;5101826;28;20214;-72
2022/06/04 01:49:08;;;;;;;3.45;2.03;;;19.60;60.30;;;;;;5108807;28;20054;-72
2022/06/04 01:51:35;;;;;;;3.45;2.13;;;19.50;55.80;;;;;;5109183;28;20051;-72
2022/06/04 01:54:03;;;;;;;2.60;1.73;;;19.40;59.40;;;;;;5108379;28;20090;-72
2022/06/04 01:56:31;;;;;;;2.55;1.85;;;19.50;60.40;;;;;;5108634;28;20134;-71
2022/06/04 01:59:01;;;;;;;3.05;2.10;;;19.50;59.70;;;;;;5108497;28;20122;-72
2022/06/04 02:01:29;;;;;;;2.50;1.95;;;20.20;59.90;;;;;;5104291;28;20048;-72
2022/06/04 02:03:58;;;;;;;3.35;1.90;;;19.30;59.40;;;;;;5089046;28;20140;-72
2022/06/04 02:06:27;;;;;;;2.10;1.90;;;19.40;55.80;;;;;;5088326;28;20055;-71
2022/06/04 02:08:54;;;;;;;2.75;2.17;;;19.40;55.80;;;;;;5088217;28;20422;-72
2022/06/04 02:11:22;;;;;;;2.95;1.80;;;19.40;55.70;;;;;;5088209;28;20581;-72
2022/06/04 02:13:50;;;;;;;2.35;1.73;;;19.30;60.10;;;;;;5088164;28;20131;-72
2022/06/04 02:16:20;;;;;;;3.28;2.00;;;19.50;59.60;;;;;;5087756;28;20138;-72
2022/06/04 02:18:47;;;;;;;3.00;2.03;;;20.00;60.10;;;;;;5088013;28;20055;-72
2022/06/04 02:21:14;;;;;;;2.58;1.92;;;19.20;60.00;;;;;;5108136;28;20079;-72
2022/06/04 02:23:41;;;;;;;2.40;1.98;;;19.40;59.80;;;;;;5108361;28;20686;-72
2022/06/04 02:26:07;;;;;;;2.30;1.83;;;19.30;55.80;;;;;;5107805;28;20134;-71
2022/06/04 02:28:36;;;;;;;2.35;1.90;;;19.30;55.80;;;;;;5108219;28;20058;-72
2022/06/04 02:31:05;;;;;;;2.15;1.85;;;19.30;56.30;;;;;;5108069;28;20048;-72
2022/06/04 02:33:40;;;;;;;3.20;2.00;;;19.30;60.20;;;;;;5107616;28;20138;-72
2022/06/04 02:36:11;;;;;;;2.42;1.92;;;19.50;60.60;;;;;;5106155;28;20058;-72
2022/06/04 02:38:43;;;;;;;3.45;2.38;;;19.30;55.80;;;;;;5107917;28;20486;-72
2022/06/04 02:41:14;;;;;;;2.22;1.73;;;19.10;60.10;;;;;;5108573;28;20067;-72
2022/06/04 02:43:42;;;;;;;2.80;1.95;;;19.30;59.40;;;;;;5117624;27;20051;-72
2022/06/04 02:46:14;;;;;;;3.08;2.00;;;19.30;55.80;;;;;;5107907;28;20143;-72
2022/06/04 02:48:43;;;;;;;2.67;1.90;;;19.30;55.80;;;;;;5107968;28;20058;-72
2022/06/04 02:51:12;;;;;;;2.33;1.65;;;19.20;55.80;;;;;;5108193;28;20089;-71
2022/06/04 02:53:38;;;;;;;4.10;1.98;;;18.40;60.10;;;;;;5089599;28;20407;-72
2022/06/04 02:56:07;;;;;;;2.15;1.80;;;19.60;60.80;;;;;;5087794;28;20087;-72
2022/06/04 02:58:34;;;;;;;2.58;1.90;;;19.20;60.20;;;;;;5087720;28;20087;-72
2022/06/04 03:01:00;;;;;;;2.85;2.15;;;19.00;60.20;;;;;;5087064;28;20131;-71
2022/06/04 03:03:27;;;;;;;2.80;2.10;;;19.10;60.70;;;;;;5107526;28;20082;-72
2022/06/04 03:05:56;;;;;;;3.67;1.80;;;18.20;59.60;;;;;;5107852;28;20125;-72
2022/06/04 03:08:23;;;;;;;3.25;1.90;;;19.20;55.80;;;;;;5106776;28;20127;-72
2022/06/04 03:10:50;;;;;;;2.83;1.95;;;20.10;60.50;;;;;;5107401;28;20143;-72
2022/06/04 03:13:17;;;;;;;3.30;1.90;;;19.20;60.00;;;;;;5107102;28;20098;-72
2022/06/04 03:15:43;;;;;;;2.85;1.80;;;19.40;59.70;;;;;;5108908;28;20564;-72
2022/06/04 03:18:10;;;;;;;3.00;2.10;;;20.10;60.70;;;;;;5108831;28;20134;-72
2022/06/04 03:20:37;;;;;;;2.65;2.00;;;19.10;60.80;;;;;;5107221;28;20126;-71
2022/06/04 03:23:06;;;;;;;2.55;2.00;;;19.10;55.80;;;;;;5107442;28;20059;-72
2022/06/04 03:25:33;;;;;;;3.25;1.90;;;19.10;55.80;;;;;;5106025;28;20059;-72
2022/06/04 03:28:00;;;;;;;2.22;1.90;;;19.20;60.90;;;;;;5107588;28;20054;-72
2022/06/04 03:30:27;;;;;;;2.53;2.00;;;19.10;60.10;;;;;;5107470;28;20127;-72
2022/06/04 03:32:53;;;;;;;2.75;1.98;;;19.10;55.80;;;;;;5106634;28;20067;-72
2022/06/04 03:35:20;;;;;;;2.83;2.25;;;19.00;59.30;;;;;;5107661;28;20130;-72
2022/06/04 03:37:47;;;;;;;2.38;1.95;;;19.10;55.80;;;;;;5109272;28;20696;-72
2022/06/04 03:40:15;;;;;;;2.38;1.88;;;19.10;55.70;;;;;;5110781;28;20058;-72
2022/06/04 03:42:42;;;;;;;2.97;2.13;;;19.10;61.00;;;;;;5104508;28;20051;-72
2022/06/04 03:45:10;;;;;;;2.30;1.77;;;19.00;59.60;;;;;;5111208;28;20052;-73
2022/06/04 03:47:37;;;;;;;2.72;1.80;;;19.10;55.80;;;;;;5111082;28;20090;-72
2022/06/04 03:50:04;;;;;;;2.55;2.00;;;19.10;55.80;;;;;;5111314;28;20078;-72
2022/06/04 03:52:31;;;;;;;2.70;2.10;;;19.00;59.80;;;;;;5111490;28;20138;-72
2022/06/04 03:54:58;;;;;;;3.13;2.17;;;19.10;59.30;;;;;;5110681;28;20122;-72
2022/06/04 03:57:41;;;;;;;3.17;2.00;;;19.20;60.20;;;;;;5104214;28;20577;-72
2022/06/04 04:00:11;;;;;;;3.33;2.17;;;18.10;59.00;;;;;;5091906;28;20075;-72
2022/06/04 04:02:38;;;;;;;2.13;1.90;;;19.00;60.40;;;;;;5090324;28;20048;-72
2022/06/04 04:05:05;;;;;;;2.53;2.00;;;18.90;60.60;;;;;;5091736;28;20167;-72
2022/06/04 04:07:32;;;;;;;2.20;2.00;;;19.00;60.00;;;;;;5092110;28;20105;-72
2022/06/04 04:09:59;;;;;;;2.65;2.10;;;19.00;60.80;;;;;;5090431;28;20048;-72
2022/06/04 04:12:28;;;;;;;2.00;1.80;;;18.00;59.40;;;;;;5091610;28;20741;-72
2022/06/04 04:14:55;;;;;;;2.10;1.90;;;18.70;58.90;;;;;;5091418;28;20101;-72
2022/06/04 04:17:22;;;;;;;3.50;2.00;;;18.90;60.10;;;;;;5091696;28;20127;-72
2022/06/04 04:19:49;;;;;;;2.47;1.90;;;19.30;61.20;;;;;;5090166;28;20044;-72
2022/06/04 04:22:16;;;;;;;2.30;2.00;;;19.10;59.90;;;;;;5090311;28;20143;-72
2022/06/04 04:24:43;;;;;;;2.60;1.90;;;19.00;61.20;;;;;;5089810;28;20135;-72
2022/06/04 04:27:11;;;;;;;3.30;2.00;;;18.90;59.50;;;;;;5090105;28;20063;-72
2022/06/04 04:29:39;;;;;;;3.00;2.00;;;19.20;60.10;;;;;;5090348;28;20055;-72
2022/06/04 04:32:07;;;;;;;2.28;1.88;;;19.00;55.70;;;;;;5091277;28;20083;-72
2022/06/04 04:34:34;;;;;;;2.70;2.05;;;20.10;61.50;;;;;;5089572;28;20043;-72
2022/06/04 04:37:00;;;;;;;2.25;1.80;;;18.70;60.40;;;;;;5106640;28;20134;-72
2022/06/04 04:39:27;;;;;;;2.83;2.00;;;19.10;60.10;;;;;;5110221;28;20054;-72
2022/06/04 04:41:54;;;;;;;3.00;2.10;;;19.00;55.70;;;;;;5118024;27;20051;-72
2022/06/04 04:44:21;;;;;;;2.20;1.70;;;18.90;59.80;;;;;;5130891;27;20138;-72
2022/06/04 04:46:51;;;;;;;2.22;1.85;;;18.20;55.20;;;;;;5127936;27;20071;-72
2022/06/04 04:49:18;;;;;;;2.53;2.33;;;19.00;55.70;;;;;;5089399;28;20052;-72
2022/06/04 04:51:44;;;;;;;2.10;1.90;;;19.00;55.80;;;;;;5090199;28;20056;-72
2022/06/04 04:54:11;;;;;;;2.10;1.77;;;19.10;61.10;;;;;;5090711;28;20052;-72
2022/06/04 04:56:38;;;;;;;3.15;1.92;;;19.00;55.70;;;;;;5089707;28;20055;-72
2022/06/04 04:59:08;;;;;;;2.03;1.80;;;19.00;55.70;;;;;;5091066;28;20443;-72
2022/06/04 05:01:35;;;;;;;1.95;1.50;;;19.00;59.90;;;;;;5095123;28;20043;-72
2022/06/04 05:04:03;;;;;;;2.60;1.80;;;19.10;55.80;;;;;;5099577;28;20056;-72
2022/06/04 05:06:30;;;;;;;2.95;2.08;;;19.10;60.90;;;;;;5089776;28;20506;-72
2022/06/04 05:08:57;;;;;;;2.13;1.80;;;18.10;60.20;;;;;;5093760;27;20213;-72
2022/06/04 05:11:27;;;;;;;3.03;2.08;;;19.10;55.60;;;;;;5129704;27;20079;-72
2022/06/04 05:13:53;;;;;;;2.50;1.70;;;19.10;60.20;;;;;;5130357;27;20138;-72
2022/06/04 05:16:21;;;;;;;2.35;1.80;;;19.20;55.60;;;;;;5130122;27;20108;-71
2022/06/04 05:18:48;;;;;;;2.08;1.80;;;19.20;55.70;;;;;;5130636;27;20491;-72
2022/06/04 05:21:19;;;;;;;2.33;1.50;;;19.30;55.60;;;;;;5093958;27;20054;-72
2022/06/04 05:23:46;;;;;;;2.53;1.80;;;19.50;60.10;;;;;;5088985;28;20130;-72
2022/06/04 05:26:13;;;;;;;2.50;1.73;;;19.20;60.20;;;;;;5089102;28;20090;-72
2022/06/04 05:28:39;;;;;;;3.35;1.90;;;19.40;55.60;;;;;;5089345;28;20137;-72
2022/06/04 05:31:06;;;;;;;2.35;1.60;;;19.60;60.10;;;;;;5089268;28;20131;-72
2022/06/04 05:33:33;;;;;;;2.83;1.83;;;19.50;55.70;;;;;;5107732;28;20383;-72
2022/06/04 05:36:00;;;;;;;3.33;1.80;;;19.60;60.10;;;;;;5107193;28;20091;-72
2022/06/04 05:38:28;;;;;;;3.00;2.20;;;18.80;59.80;;;;;;5088512;28;20238;-72
2022/06/04 05:40:59;;;;;;;2.10;1.67;;;18.50;60.30;;;;;;5088588;28;20056;-72
2022/06/04 05:43:25;;;;;;;3.10;1.77;;;19.80;55.70;;;;;;5107875;28;20054;-72
2022/06/04 05:45:57;;;;;;;2.28;1.60;;;20.00;59.60;;;;;;5109349;28;20047;-72
2022/06/04 05:48:24;;;;;;;2.42;1.80;;;20.00;59.10;;;;;;5089406;28;20083;-72
2022/06/04 05:50:51;;;;;;;2.90;1.90;;;20.10;55.10;;;;;;5088834;28;20055;-72
2022/06/04 05:53:18;;;;;;;3.83;1.90;;;21.60;60.50;;;;;;5089769;28;20087;-72
2022/06/04 05:55:46;;;;;;;2.35;1.65;;;20.30;54.80;;;;;;5098420;28;20132;-72
2022/06/04 05:58:13;;;;;;;3.38;1.77;;;20.40;54.70;;;;;;5110274;28;20078;-72
2022/06/04 06:00:40;;;;;;;2.30;1.90;;;20.50;59.10;;;;;;5107850;28;20127;-72
2022/06/04 06:03:06;;;;;;;2.97;1.70;;;20.70;58.20;;;;;;5107935;28;20055;-72
2022/06/04 06:05:33;;;;;;;2.85;1.77;;;20.70;53.90;;;;;;5109736;28;20094;-72
2022/06/04 06:08:00;;;;;;;3.08;2.00;;;19.90;57.60;;;;;;5108895;28;20130;-72
2022/06/04 06:10:27;;;;;;;2.00;1.80;;;20.90;53.60;;;;;;5094347;28;20051;-72
2022/06/04 06:12:55;;;;;;;3.30;1.77;;;21.00;53.40;;;;;;5089582;28;20123;-72
2022/06/04 06:15:21;;;;;;;2.30;1.88;;;21.30;58.00;;;;;;5087926;28;20147;-72
2022/06/04 06:17:48;;;;;;;2.38;1.83;;;21.90;57.80;;;;;;5088118;28;20056;-72
2022/06/04 06:20:16;;;;;;;1.80;1.60;;;21.20;52.90;;;;;;5088181;28;20048;-72
2022/06/04 06:22:42;;;;;;;2.42;1.85;;;21.30;52.90;;;;;;5089118;28;20048;-72
2022/06/04 06:25:09;;;;;;;3.28;1.90;;;21.40;52.70;;;;;;5087893;28;20074;-72
2022/06/04 06:27:36;;;;;;;5.13;2.00;;;21.60;57.80;;;;;;5089910;28;20139;-72
2022/06/04 06:30:05;;;;;;;5.43;1.90;;;21.60;57.60;;;;;;5108703;28;20573;-72
2022/06/04 06:32:32;;;;;;;2.92;1.80;;;21.50;57.40;;;;;;5109490;28;20070;-72
2022/06/04 06:34:59;;;;;;;2.92;1.80;;;21.60;55.50;;;;;;5109004;28;20126;-72
2022/06/04 06:37:25;;;;;;;3.90;2.00;;;21.80;56.70;;;;;;5108276;28;20051;-72
2022/06/04 06:39:53;;;;;;;2.58;2.10;;;21.70;57.00;;;;;;5105498;28;20079;-71
2022/06/04 06:42:19;;;;;;;2.15;1.70;;;21.60;52.50;;;;;;5108051;28;20140;-71
2022/06/04 06:44:46;;;;;;;2.97;1.77;;;21.70;55.00;;;;;;5107527;28;20070;-71
2022/06/04 06:47:14;;;;;;;2.08;1.60;;;21.70;52.30;;;;;;5109537;28;20428;-70
2022/06/04 06:49:41;;;;;;;3.50;1.92;;;22.20;56.90;;;;;;5095998;28;20058;-71
2022/06/04 06:52:09;;;;;;;1.90;1.60;;;21.90;57.50;;;;;;5087381;28;20414;-71
2022/06/04 06:54:36;;;;;;;2.85;2.10;;;21.90;52.10;;;;;;5087328;28;20052;-72
2022/06/04 06:57:04;;;;;;;3.55;1.80;;;22.10;57.00;;;;;;5087708;28;20054;-71
2022/06/04 06:59:31;;;;;;;6.05;2.20;;;22.40;57.00;;;;;;5087621;28;20048;-71
2022/06/04 07:01:58;;;;;;;10.35;2.10;;;21.50;56.90;;;;;;5094170;28;20122;-72
2022/06/04 07:04:26;;;;;;;6.50;2.40;;;22.20;52.50;;;;;;5107683;28;20082;-71
2022/06/04 07:06:55;;;;;;;4.13;2.40;;;22.20;51.80;;;;;;5107659;28;20126;-72
2022/06/04 07:09:23;;;;;;;4.60;2.10;;;22.30;51.90;;;;;;5108061;28;20063;-72
2022/06/04 07:11:50;;;;;;;6.93;2.75;;;22.30;51.80;;;;;;5109679;28;20118;-71
2022/06/04 07:14:16;;;;;;;4.47;2.08;;;22.40;51.80;;;;;;5113262;28;20048;-72
2022/06/04 07:16:44;;;;;;;6.93;2.20;;;22.50;51.80;;;;;;5111842;28;20554;-71
2022/06/04 07:19:11;;;;;;;4.32;2.30;;;22.50;51.70;;;;;;5095468;28;20263;-71
2022/06/04 07:21:39;;;;;;;6.85;2.45;;;22.60;51.60;;;;;;5092624;28;20087;-71
2022/06/04 07:24:06;;;;;;;6.38;2.30;;;22.40;56.00;;;;;;5093935;28;20058;-71
2022/06/04 07:26:33;;;;;;;5.07;2.30;;;22.60;51.50;;;;;;5111737;28;20083;-71
2022/06/04 07:29:00;;;;;;;5.63;2.70;;;22.70;51.40;;;;;;5111569;28;20047;-71
2022/06/04 07:31:26;;;;;;;4.55;2.33;;;22.60;55.60;;;;;;5111449;28;20050;-72
2022/06/04 07:33:55;;;;;;;5.55;2.50;;;22.70;55.70;;;;;;5110778;28;20061;-72
2022/06/04 07:36:23;;;;;;;5.72;2.20;;;23.10;55.80;;;;;;5111711;28;20522;-72
2022/06/04 07:38:51;;;;;;;7.25;2.60;;;23.20;56.00;;;;;;5111818;28;20074;-72
2022/06/04 07:41:19;;;;;;;6.22;2.80;;;23.00;55.80;;;;;;5114296;27;20039;-72
2022/06/04 07:43:45;;;;;;;5.93;2.30;;;23.00;51.20;;;;;;5132071;27;20046;-72
2022/06/04 07:46:12;;;;;;;4.63;2.17;;;22.90;56.60;;;;;;5132073;27;20084;-71
2022/06/04 07:48:39;;;;;;;4.07;2.47;;;23.10;55.80;;;;;;5131948;27;20130;-72
2022/06/04 07:51:06;;;;;;;4.72;2.42;;;23.20;54.90;;;;;;5123145;27;20054;-72
2022/06/04 07:53:32;;;;;;;5.20;2.55;;;24.40;56.20;;;;;;5111045;28;20069;-71
2022/06/04 07:56:05;;;;;;;8.90;2.60;;;23.30;56.10;;;;;;5111375;28;20476;-72
2022/06/04 07:58:31;;;;;;;4.30;2.50;;;23.20;51.00;;;;;;5112664;28;20058;-72
2022/06/04 08:00:58;;;;;;;5.35;2.30;;;24.00;55.80;;;;;;5112283;28;20071;-72
2022/06/04 08:03:25;;;;;;;4.63;2.33;;;23.60;51.20;;;;;;5110578;28;20131;-72
2022/06/04 08:05:52;;;;;;;6.32;2.78;;;23.20;54.90;;;;;;5110612;28;20130;-72
2022/06/04 08:08:19;;;;;;;7.13;3.05;;;23.30;51.50;;;;;;5100018;28;20048;-72
2022/06/04 08:10:46;;;;;;;5.38;2.30;;;23.40;55.40;;;;;;5090937;28;20387;-72
2022/06/04 08:13:14;;;;;;;4.93;2.35;;;23.60;55.40;;;;;;5090664;28;20143;-72
2022/06/04 08:15:42;;;;;;;3.03;2.30;;;23.40;51.00;;;;;;5090978;28;20059;-71
2022/06/04 08:18:10;;;;;;;3.60;2.25;;;23.50;51.00;;;;;;5090904;28;20109;-72
2022/06/04 08:20:41;;;;;;;5.53;2.60;;;23.80;56.00;;;;;;5095360;28;20044;-72
2022/06/04 08:23:07;;;;;;;4.82;2.40;;;23.40;50.90;;;;;;5110315;28;20126;-72
2022/06/04 08:25:37;;;;;;;3.60;2.20;;;23.40;55.10;;;;;;5101956;27;20123;-72
2022/06/04 08:28:05;;;;;;;3.20;2.13;;;23.50;51.00;;;;;;5090634;28;20452;-72
2022/06/04 08:30:33;;;;;;;4.13;2.38;;;23.60;55.30;;;;;;5090668;28;20164;-72
2022/06/04 08:33:00;;;;;;;4.20;2.33;;;23.80;55.70;;;;;;5090035;28;20087;-72
2022/06/04 08:35:27;;;;;;;4.65;2.03;;;23.60;51.00;;;;;;5090278;28;20139;-72
2022/06/04 08:37:53;;;;;;;4.88;2.45;;;23.60;50.90;;;;;;5090153;28;20051;-72
2022/06/04 08:40:25;;;;;;;3.50;2.20;;;23.60;50.90;;;;;;5109541;28;20063;-71
2022/06/04 08:42:55;;;;;;;4.28;2.20;;;23.60;54.70;;;;;;5110005;28;20066;-71
2022/06/04 08:45:22;;;;;;;3.58;2.20;;;23.60;50.80;;;;;;5110531;28;20548;-72
2022/06/04 08:47:51;;;;;;;5.15;2.67;;;23.60;50.80;;;;;;5110522;28;20056;-72
2022/06/04 08:50:19;;;;;;;4.65;2.28;;;23.50;55.50;;;;;;5110461;28;20061;-71
2022/06/04 08:52:48;;;;;;;4.00;2.38;;;23.60;50.90;;;;;;5110158;28;20086;-69
2022/06/04 08:58:09;;;;;;;3.38;2.30;;;23.60;50.80;;;;;;5090037;28;20060;-72
2022/06/04 09:00:37;;;;;;;3.90;2.30;;;24.40;55.50;;;;;;5089464;28;20054;-72
2022/06/04 09:03:11;;;;;;;3.92;2.40;;;23.60;50.90;;;;;;5106848;28;20083;-72
2022/06/04 09:05:59;;;;;;;4.28;2.17;;;23.70;50.90;;;;;;5110350;28;20142;-72
2022/06/04 09:08:35;;;;;;;4.22;2.20;;;23.70;55.50;;;;;;5110525;28;20104;-72
2022/06/04 09:11:04;;;;;;;3.78;2.30;;;23.00;54.50;;;;;;5109243;28;20052;-71
2022/06/04 09:13:32;;;;;;;3.22;2.25;;;23.60;50.90;;;;;;5110731;28;20052;-71
2022/06/04 09:16:03;;;;;;;3.90;2.38;;;23.70;51.00;;;;;;5109731;28;20493;-71
2022/06/04 09:18:36;;;;;;;5.38;2.20;;;23.70;50.90;;;;;;5109334;28;20075;-71
2022/06/04 09:21:04;;;;;;;3.55;2.28;;;23.90;51.10;;;;;;5109202;28;20054;-71
2022/06/04 09:23:43;;;;;;;3.35;2.00;;;23.70;51.00;;;;;;5109555;28;20055;-71
2022/06/04 09:26:19;;;;;;;3.65;2.00;;;23.70;51.00;;;;;;5110584;28;20159;-71
2022/06/04 09:28:54;;;;;;;4.13;2.28;;;23.70;51.00;;;;;;5108831;28;20056;-71
2022/06/04 09:31:25;;;;;;;3.88;2.17;;;23.60;55.20;;;;;;5109532;28;20062;-71
2022/06/04 09:33:55;;;;;;;2.70;2.17;;;22.90;54.70;;;;;;5109312;28;20065;-71
2022/06/04 09:36:25;;;;;;;3.67;2.40;;;23.60;51.00;;;;;;5108107;28;20083;-71
2022/06/04 09:38:53;;;;;;;3.92;2.38;;;23.70;51.00;;;;;;5109489;28;20066;-71
2022/06/04 09:41:21;;;;;;;5.38;2.28;;;23.60;54.70;;;;;;5112358;27;20039;-72
2022/06/04 09:43:57;;;;;;;3.35;2.10;;;23.60;55.20;;;;;;5125743;27;20503;-72
2022/06/04 09:46:25;;;;;;;3.10;2.25;;;23.70;51.00;;;;;;5109353;28;20490;-72
2022/06/04 09:48:53;;;;;;;3.05;2.20;;;24.80;55.70;;;;;;5100598;28;20069;-72
2022/06/04 09:51:21;;;;;;;2.72;2.08;;;23.80;55.30;;;;;;5088984;28;20127;-72
2022/06/04 09:53:50;;;;;;;8.52;2.53;;;23.70;51.00;;;;;;5089845;28;20040;-71
2022/06/04 09:56:25;;;;;;;3.42;2.20;;;23.50;54.60;;;;;;5088216;28;20052;-71
2022/06/04 09:58:52;;;;;;;3.15;2.17;;;23.70;50.70;;;;;;5088419;28;20136;-71
2022/06/04 10:01:23;;;;;;;3.17;2.15;;;23.70;50.70;;;;;;5099099;28;20097;-71
2022/06/04 10:04:02;;;;;;;3.08;2.00;;;23.90;54.70;;;;;;5108508;28;20066;-72
2022/06/04 10:06:29;;;;;;;2.22;1.90;;;23.70;50.70;;;;;;5108850;28;20104;-71
2022/06/04 10:11:50;;;;;;;3.67;2.25;;;23.60;50.60;;;;;;5108366;28;20047;-72
2022/06/04 10:14:27;;;;;;;2.50;1.90;;;23.50;55.30;;;;;;5108364;28;20148;-71
2022/06/04 10:16:54;;;;;;;3.97;2.35;;;23.60;54.90;;;;;;5107996;28;20139;-71
2022/06/04 10:19:23;;;;;;;2.78;2.00;;;23.60;50.70;;;;;;5108478;28;20152;-71
2022/06/04 10:22:05;;;;;;;2.85;2.10;;;23.30;53.60;;;;;;5108101;28;20054;-72
2022/06/04 10:24:32;;;;;;;2.80;2.10;;;23.50;50.70;;;;;;5108358;28;20335;-71
2022/06/04 10:27:19;;;;;;;2.67;1.95;;;23.50;50.70;;;;;;5108487;28;20482;-71
2022/06/04 10:30:13;;;;;;;2.92;1.88;;;23.50;50.70;;;;;;5109697;28;20052;-72
2022/06/04 10:32:52;;;;;;;2.33;2.13;;;23.50;54.80;;;;;;5109462;28;20118;-71
2022/06/04 10:35:22;;;;;;;4.13;1.80;;;23.40;50.90;;;;;;5106406;28;20138;-72
2022/06/04 10:37:57;;;;;;;1.90;1.70;;;23.40;50.90;;;;;;5108195;28;20059;-71
2022/06/04 10:40:45;;;;;;;3.22;2.10;;;23.40;50.90;;;;;;5107986;28;20047;-71
2022/06/04 10:43:26;;;;;;;4.20;2.30;;;23.40;54.40;;;;;;5107702;28;20096;-71
2022/06/04 10:45:55;;;;;;;2.88;2.20;;;23.40;55.00;;;;;;5108197;28;20051;-71
2022/06/04 10:48:29;;;;;;;3.45;2.00;;;23.40;51.10;;;;;;5107899;28;20575;-71
2022/06/04 10:53:57;;;;;;;3.17;2.10;;;23.30;51.10;;;;;;5087472;28;20056;-71
2022/06/04 10:56:26;;;;;;;2.10;1.80;;;23.10;55.70;;;;;;5094517;28;20051;-71
2022/06/04 10:58:55;;;;;;;2.08;1.80;;;23.30;51.20;;;;;;5107903;28;20089;-71
2022/06/04 11:01:26;;;;;;;3.63;2.00;;;23.30;51.20;;;;;;5108242;28;20044;-72
2022/06/04 11:04:02;;;;;;;2.58;1.80;;;23.30;51.20;;;;;;5107620;28;20134;-72
2022/06/04 11:06:31;;;;;;;2.25;1.95;;;23.20;51.20;;;;;;5106469;28;20067;-71
2022/06/04 11:09:00;;;;;;;2.03;1.80;;;23.20;51.30;;;;;;5088964;28;20078;-72
2022/06/04 11:11:29;;;;;;;3.83;1.90;;;23.20;51.30;;;;;;5107276;28;20039;-71
2022/06/04 11:13:57;;;;;;;2.63;1.90;;;23.10;54.90;;;;;;5107613;28;20130;-71
2022/06/04 11:16:27;;;;;;;2.05;1.85;;;23.20;51.30;;;;;;5107830;28;20062;-71
2022/06/04 11:18:56;;;;;;;2.90;2.08;;;23.20;55.60;;;;;;5107846;28;20139;-71
2022/06/04 11:21:26;;;;;;;2.30;2.10;;;23.20;55.10;;;;;;5107446;28;20105;-71
2022/06/04 11:23:56;;;;;;;2.85;2.03;;;23.20;51.40;;;;;;5102451;28;20131;-71
2022/06/04 11:26:27;;;;;;;2.33;1.98;;;22.10;55.70;;;;;;5088638;28;20056;-71
2022/06/04 11:28:54;;;;;;;2.72;2.00;;;23.20;51.50;;;;;;5087165;28;20056;-71
2022/06/04 11:31:31;;;;;;;3.08;2.20;;;23.10;51.40;;;;;;5088741;28;20050;-73
2022/06/04 11:34:14;;;;;;;2.13;1.80;;;24.30;55.50;;;;;;5087146;28;20051;-71
2022/06/04 11:36:46;;;;;;;2.55;1.92;;;22.00;54.90;;;;;;5087135;28;20493;-72
2022/06/04 11:39:21;;;;;;;2.25;1.80;;;23.10;51.50;;;;;;5087258;28;20052;-72
2022/06/04 11:41:52;;;;;;;3.40;1.70;;;23.00;54.90;;;;;;5094006;28;20051;-72
2022/06/04 11:44:40;;;;;;;2.05;1.80;;;23.10;51.50;;;;;;5107565;28;20131;-72
2022/06/04 11:47:15;;;;;;;2.15;1.95;;;22.10;54.10;;;;;;5106813;28;20051;-71
2022/06/04 11:49:43;;;;;;;2.00;1.70;;;23.10;51.50;;;;;;5107871;28;20047;-72
2022/06/04 11:52:16;;;;;;;2.20;1.80;;;23.10;51.60;;;;;;5107211;28;20056;-72
2022/06/04 11:55:12;;;;;;;3.83;1.90;;;23.10;51.60;;;;;;5107306;28;20079;-72
2022/06/04 11:57:41;;;;;;;;;;;23.10;51.60;;;;;;5093189;28;20466;-72
2022/06/04 12:00:14;;;;;;;2.13;1.90;;;23.10;51.70;;;;;;5089835;28;20344;-71
2022/06/04 12:02:45;;;;;;;1.83;1.70;;;22.40;54.60;;;;;;5104279;28;20083;-71
2022/06/04 12:05:20;;;;;;;3.70;1.88;;;23.10;51.80;;;;;;5110992;28;20047;-72
2022/06/04 12:07:51;;;;;;;1.80;1.70;;;23.10;51.70;;;;;;5111229;28;20627;-71
2022/06/04 12:10:25;;;;;;;2.92;1.90;;;23.20;51.80;;;;;;5110977;28;20131;-71
2022/06/04 12:12:56;;;;;;;2.13;1.80;;;23.00;55.40;;;;;;5103298;28;20398;-71
2022/06/04 12:15:30;;;;;;;2.75;2.10;;;22.90;54.70;;;;;;5093961;28;20494;-71
2022/06/04 12:17:58;;;;;;;2.15;1.70;;;23.10;51.70;;;;;;5096202;28;20466;-71
2022/06/04 12:26:21;;;;;;;2.53;1.80;;;23.10;51.60;;;;;;5110773;28;20512;-71
2022/06/04 12:28:48;;;;;;;2.90;1.77;;;23.00;55.10;;;;;;5110609;28;20053;-71
2022/06/04 12:31:27;;;;;;;2.40;1.67;;;23.90;55.20;;;;;;5097999;28;20052;-71
2022/06/04 12:33:54;;;;;;;3.00;2.00;;;22.90;56.00;;;;;;5089893;28;20170;-71
2022/06/04 12:36:24;;;;;;;2.30;1.90;;;23.10;51.60;;;;;;5091063;28;20089;-71
2022/06/04 12:38:59;;;;;;;2.83;1.90;;;23.10;51.60;;;;;;5090265;28;20127;-71
2022/06/04 12:41:36;;;;;;;;;;;23.10;51.60;;;;;;5095814;27;20522;-71
2022/06/04 12:44:02;;;;;;;2.65;1.52;;;23.10;51.70;;;;;;5131954;27;20002;-71
2022/06/04 12:46:31;;;;;;;2.03;1.83;;;23.10;56.00;;;;;;5130487;27;20047;-71
2022/06/04 12:49:01;;;;;;;1.90;1.70;;;23.00;55.10;;;;;;5118463;27;20139;-71
2022/06/04 12:51:38;;;;;;;2.10;1.75;;;22.90;56.50;;;;;;5090051;28;20134;-72
2022/06/04 12:54:07;;;;;;;2.50;1.90;;;22.60;55.00;;;;;;5089856;28;20083;-72
2022/06/04 12:56:38;;;;;;;2.47;1.65;;;23.10;51.70;;;;;;5104553;28;20138;-72
2022/06/04 12:59:06;;;;;;;2.70;1.80;;;23.00;56.60;;;;;;5105724;28;20084;-72
2022/06/04 13:01:38;;;;;;;2.70;1.70;;;22.90;55.40;;;;;;5101630;28;20044;-72
2022/06/04 13:04:19;;;;;;;2.30;1.85;;;22.80;55.70;;;;;;5099021;28;20098;-72
2022/06/04 13:06:47;;;;;;;2.05;1.77;;;23.40;54.80;;;;;;5095951;28;20048;-72
2022/06/04 13:09:19;;;;;;;1.83;1.60;;;21.10;50.60;;;;;;5089157;28;20070;-72
2022/06/04 13:11:55;;;;;;;2.65;2.00;;;23.10;51.70;;;;;;5100131;28;20050;-72
2022/06/04 13:14:29;;;;;;;1.83;1.60;;;22.90;54.70;;;;;;5104162;28;20070;-72
2022/06/04 13:16:58;;;;;;;2.50;1.98;;;23.10;51.80;;;;;;5098246;28;20048;-72
2022/06/04 13:19:46;;;;;;;2.40;1.75;;;23.10;51.80;;;;;;5100921;28;20054;-72
2022/06/04 13:22:18;;;;;;;1.90;1.70;;;23.10;56.10;;;;;;5089432;28;20138;-72